ENBREKVG

Guest
Details From ENBR - Bergen Lufthavn Flesland
To EKVG - Vagar
Flight Number -
Tags decoded
Created
Modified
Stats Distance 377 nm / 699 km
Max Altitude 0 ft / 0 m
Waypoints 6
Social Downloads 1
Likes 0
Share VATSIM

Download

Looking for another format? Having issues loading an existing format? Contact us
Advertisement - Login to hide

Notes

Requested: ENBR FLS VALDI G3 CONNY NL EKVG

Route

ENBR FLS VALDI G3 CONNY NL EKVG

ID Type Via Altitude Latitude Longitude Leg Dist Tot Dist Heading (true) Name
O ENBR APT - 0 ft / 0 m 60.29339˚ 5.21814˚ - 0 nm - Bergen Lufthavn Flesland
FLS VOR - 0 ft / 0 m 60.31126˚ 5.21219˚ 1 nm 1 nm 351° / 351° FLESLAND VOR-DME
VALDI FIX - 0 ft / 0 m 61.21417˚ 0.00000˚ 162 nm 163 nm 292° / 287° -
CONNY FIX G3 (AWY-LO) 0 ft / 0 m 61.90000˚ -5.58333˚ 164 nm 328 nm 287° / 282° -
NL NDB - 0 ft / 0 m 61.95814˚ -6.60003˚ 28 nm 357 nm 277° / 276° NOLSO NDB
O EKVG APT - 0 ft / 0 m 62.06358˚ -7.27704˚ 20 nm 377 nm 289° / 288° Vagar

Altitude Profile

Advertisement - Login to hide

Weather


0- 5 10 15 20 25 30 35+ Temperature / ° C

Clouds and Precipitation
Forecast for 2017-12-16 06:00 UTC. Updated 42 minutes ago

Ground ~20,000 ft ~40,000 ft Winds

ENBR

Details ICAO ENBR (BGO)
Name Bergen Lufthavn Flesland
Region Norway
Timezone Europe/Oslo (UTC+1.0)
Stats Elevation 165 ft / 50 m (AMSL)
Location 60.293388° 5.218140°
Runways 1
Magnetic Variation 0.841° E

METAR

ENBR 160150Z 00000KT CAVOK M06/M07 Q1000 RMK WIND 1200FT 02012KT

Decode

TAF

TAF ENBR 152300Z 1600/1624 36007KT CAVOK TEMPO 1604/1618 FEW015CB SCT040 PROB30 TEMPO 1604/1612 1200 SHSN VV009

Decode

Departure Runways

ID Width Length Bearing (true) Bearing (mag) Surface Threshold Offset Overrun Length
17 148 ft / 45 m 9,793 ft / 2,985 m 170.56° 169.72° Asphalt 886 ft / 270 m 0 ft / 0 m
35 148 ft / 45 m 9,793 ft / 2,985 m 350.57° 349.73° Asphalt 886 ft / 270 m 0 ft / 0 m

EKVG

Details ICAO EKVG (FAE)
Name Vagar
Region Denmark / Faroe Islands
Timezone Atlantic/Faroe (UTC+0.0)
Stats Elevation 280 ft / 85 m (AMSL)
Location 62.063584° -7.277044°
Runways 1
Magnetic Variation 5.383° W

METAR

EKVG 160150Z AUTO 33014KT 2600NDV -SN BKN013/// 00/M00 Q1011 RMK BKN011/// WIND 850FT 33015KT

Decode

TAF

Not found

Destination Runways

ID Width Length Bearing (true) Bearing (mag) Surface Threshold Offset Overrun Length
13 98 ft / 30 m 4,088 ft / 1,246 m 117.92° 123.30° Asphalt 0 ft / 0 m 197 ft / 60 m
31 98 ft / 30 m 4,088 ft / 1,246 m 297.94° 303.32° Asphalt 0 ft / 0 m 197 ft / 60 m

Approach Navaids

Runway Type Ident Frequency Range Bearing (true) Bearing (mag) Slope Elevation
13 Localiser SF 109.10 MHz 17 nm / 31 km 104.19° 109.57° - 268 ft / 82 m (AMSL)
13 DME SF 109.10 MHz 18 nm / 33 km - - - 268 ft / 82 m (AMSL)
31 Localiser MF 110.30 MHz 26 nm / 48 km 296.18° 301.56° - 276 ft / 84 m (AMSL)
31 DME MF 110.30 MHz 25 nm / 46 km - - - 275 ft / 84 m (AMSL)

Popular Alternatives